Escondido, CA

4:04 PM PDT en Octubre 22, 2014 (GMT -0700)
Southeast Escondido | Change Station
CLOSE
Current Station
Estación meteorológica personal
Location: Escondido, CA
Altura: 620 ft
Estaciones meteorológicas cercanas

Alt 620 ft 33.11 °N, 117.05 °W | Updated 12 seconds ago

Despejado
Despejado
83.4 ° F
Sensación térmica 81 ° F
N
0.0
Viento Variable Viento desde Oeste
Gusts 0.0 mph

Hoy
Alta -- | Baja -- ° F
--% Posibilidad de precipitaciones
Ayer
Alta -- | Baja -- ° F
Precip. -- pul
6:58 AM 6:06 PM
Creciente menguante, 1% visible
Presión 29.90 pul
Visibilidad 10.0 Millas
Nubes Despejado
Índice de calor 81 ° F
Punto de rocío 47 ° F
Humedad 28%
Precipitaciones 0.00 pul
Espesor de la nieve No disponible.
UV 1.0 de una escala de 12
Polen 3.90 de una escala de 12
Ozono Buena
Flu Activity Sporadic
METAR KRNM 222253Z 28008KT 10SM CLR 28/09 A2993 RMK AO2 SLP123 T02780089

More Conditions Fewer Conditions

Presión 29.90 pul
Visibilidad 10.0 Millas
Nubes Despejado
Índice de calor 81 ° F
Punto de rocío 47 ° F
Humedad 28%
Precipitaciones 0.00 pul
Espesor de la nieve No disponible.
UV 1.0 de una escala de 12
Polen 3.90 de una escala de 12
Ozono Buena
Flu Activity Sporadic
METAR KRNM 222253Z 28008KT 10SM CLR 28/09 A2993 RMK AO2 SLP123 T02780089

More Conditions Fewer Conditions

10-Day Weather Forecast

Almanac

Astronomía

Oct. 22, 2014 Salida Puesta
Hora real 6:58 AM PDT 6:06 PM PDT
Crepúsculo civil 6:33 AM PDT 6:31 PM PDT
Crepúsculo náutico 6:04 AM PDT 7:00 PM PDT
Crepúsculo astronómico 5:35 AM PDT 7:29 PM PDT
Luna 5:47 AM PDT 5:33 PM PDT
Horas de luz 11h 58m
Horas de luz
11h 08m
Tomorrow will be 1m 53s shorter.
Creciente menguante, 1% of the Moon is Illuminated
Hoy
Creciente menguante
Oct 23
Nueva
Oct 30
Cuarto creciente
Nov 6
Luna llena
Nov 14
Cuarto menguante

Extremos de hoy

Máximos del estado Bajos del estado

Community

WunderPhotos

Upload Photos

1,764,071 ¡fotos cargadas!

WunderBlogs® & News

Nearby

Calidad del aire

  Calidad del aire Índice AQ Contaminante
Ayer Moderada
PM2.5
Ayer Buena
OZONE
Real Buena
OZONE
Miércoles Buena
OZONE
Jueves Moderada
PM2.5
Jueves Buena
OZONE

Grosos de nieve

Estación Profundido Altura
Summit Meadow 0 in 9122 ft
Monitor Pass 0 in 8350 ft
Rubicon #2 0 in 7500 ft
Adin Mountain 0 in 6200 ft

Actividad de terremotos

Ciudad Distance Mag. Tiempo y dato
Alberto Oviedo Mota, Mexico 136 Millas 3.5 9:05 PM PDT
2014-10-21
Delta, Mexico 116 Millas 2.5 8:53 PM PDT
2014-10-21
Alberto Oviedo Mota, Mexico 128 Millas 2.7 4:13 PM PDT
2014-10-21
Alberto Oviedo Mota, Mexico 126 Millas 3.3 3:57 PM PDT
2014-10-21
Magnitud mínima muestra es 2,5.

Temperaturas de aguas costeras

Lugar Temperatura
La Jolla, CA 71.1 ° F
San Diego, CA 75.0 ° F

Estaciones meteorológicas cercanas